CheckWX is a tool to help pilots better visualize weather data.  It is not intended as a substitute for an official pre-flight weather briefing.

03:35:11 UTC

CYEN METAR
Estevan Airport
Estevan, Canada
Current

21 mins ago

CYEN 260314Z AUTO 07013G22KT 9SM FEW075 BKN093 OVC110 13/09 A2995 RMK PRESRR SLP153 DENSITY ALT 2000FT
Observed
May-26 @ 03:14 UTC
Wind
  • 070° at 13 KTS
  • Gusting to 22 KTS
Visibility
9 SM
Flight Rules
VFR
Cloud Levels
  • Few at 7,500' AGL
  • Broken at 9,300' AGL
  • Overcast at 11,000' AGL
Temperature
13°C / 55°F
Dewpoint
C / 48°F
Humidity
77%
Altimeter
29.95" Hg
Pressure
1014.22 hPa
Previous

35 mins ago

CYEN 260300Z AUTO 07011G19KT 9SM -RA BKN075 OVC100 14/10 A2993 RMK PRESFR SLP147 DENSITY ALT 2100FT
Observed
May-26 @ 03:00 UTC
Wind
  • 070° at 11 KTS
  • Gusting to 19 KTS
Visibility
9 SM
Flight Rules
VFR
Conditions
Light Rain
Cloud Levels
  • Broken at 7,500' AGL
  • Overcast at 10,000' AGL
Temperature
14°C / 57°F
Dewpoint
10°C / 50°F
Humidity
77%
Altimeter
29.93" Hg
Pressure
1013.52 hPa
Previous

58 mins ago

CYEN 260237Z AUTO 06007KT 020V090 9SM -RA OVC080 15/09 A2995 RMK PRESRR SLP155 DENSITY ALT 2300FT
Observed
May-26 @ 02:37 UTC
Wind
  • 060° at 7 KTS
Visibility
9 SM
Flight Rules
VFR
Conditions
Light Rain
Cloud Levels
  • Overcast at 8,000' AGL
Temperature
15°C / 59°F
Dewpoint
C / 48°F
Humidity
68%
Altimeter
29.95" Hg
Pressure
1014.22 hPa